KGLW

Glasgow Municipal Airport

Glasgow, Kentucky, USA
METAR KGLW 221710Z AUTO 26004KT 10SM SCT028 BKN040 OVC095 27/19 A3008 RMK AO2 LTG DSNT N AND NW T02670191
Observed Flight Rules
May-22 @ 17:10 UTC (39 minutes ago) Visual Flight Rules
Wind Visibility Clouds
260° at 4 knots 10 miles
  • Scattered at 2,800' AGL
  • Broken at 4,000' AGL
  • Overcast at 9,500' AGL
Temperatures Readings
Current 27°C / 81°F
Dewpoint 19°C / 66°F
Humidity 62%
Altimeter 30.08" Hg
Pressure 1019 hPa
Elevation 218
METAR KGLW 221710Z AUTO 26004KT 10SM SCT028 BKN040 OVC095 27/19 A3008 RMK AO2 LTG DSNT N AND NW T02670191
Observed Flight Rules
May-22 @ 17:10 UTC
(39 minutes ago)
VFR
Wind Visibility
260° at 4 knots 10 miles
Clouds
  • Scattered at 2,800' AGL
  • Broken at 4,000' AGL
  • Overcast at 9,500' AGL
Temperature Dewpoint
27°C / 81°F 19°C / 66°F
Humidity Altimeter Pressure
62% 30.08" Hg 1019 hPa